Sankoushin — JD2465 — position and weather

sailwx.info

Track history (hours):
 
Tides and Currents Weather Stations Pressure Air Temp Water Temp Dewpoint Dewpoint Depression Visibility Wind Speed Wind Dir Waves Ship Positions

Sankoushin

Last reported at 2014-Oct-01 08:19 UTC. Time now 2014-Oct-01 16:23 UTC.
Position N 34°39' E 134°52'.

Length 71 m; draft 4.2 m.

Type: Cargo ship. MMSI: 431000269.

Date/timePositionNaut miles runAvg speedWind from/ knotsBaromVisibWave heightAir tempDewpointWater temp
2014-Oct-01 08:19N 34°39' E 134°52'810.7
2014-Oct-01 07:33N 34°37' E 135°02'1110.8
2014-Oct-01 06:33N 34°26' E 135°04'1111.2
2014-Oct-01 05:33N 34°15' E 135°04'3 2.8
2014-Oct-01 04:33N 34°15' E 135°07'0 0.0
2014-Oct-01 03:33N 34°15' E 135°07'0 0.0
2014-Oct-01 02:33N 34°15' E 135°07'0 0.0
2014-Oct-01 01:33N 34°15' E 135°07'0 0.0
2014-Oct-01 00:33N 34°15' E 135°07'0 0.0
2014-Sep-30 23:33N 34°15' E 135°07'0 0.0
2014-Sep-30 22:33N 34°15' E 135°07'0 0.0
2014-Sep-30 21:33N 34°15' E 135°07'0 0.0
2014-Sep-30 20:33N 34°15' E 135°07'2 1.8
2014-Sep-30 19:33N 34°15' E 135°05'1312.8
2014-Sep-30 18:32N 34°28' E 135°03'11 9.5
2014-Sep-30 17:20N 34°37' E 134°55'1 0.0
2014-Sep-29 16:22N 34°37' E 134°54'1112.8
2014-Sep-29 15:33N 34°36' E 135°06'1313.1
2014-Sep-29 14:34N 34°39' E 135°22'4 4.4
2014-Sep-29 13:33N 34°38' E 135°27'0 0.0
2014-Sep-29 12:33N 34°38' E 135°27'0 0.0
2014-Sep-29 11:33N 34°38' E 135°27'0 0.0
2014-Sep-29 10:32N 34°38' E 135°27'1 0.6
2014-Sep-29 09:33N 34°38' E 135°27'5 4.5
2014-Sep-29 08:32N 34°36' E 135°22'0 0.0
2014-Sep-29 07:26N 34°36' E 135°22'0 0.0
2014-Sep-29 06:32N 34°36' E 135°22'0 0.0
2014-Sep-29 05:27N 34°36' E 135°22'0 0.1
2014-Sep-29 04:33N 34°36' E 135°22'0 0.0
2014-Sep-29 03:33N 34°36' E 135°22'0 0.0
2014-Sep-29 02:29N 34°36' E 135°22'0 0.1
2014-Sep-29 01:31N 34°36' E 135°22'0 0.0
2014-Sep-29 00:28N 34°36' E 135°22'0 0.0
2014-Sep-28 23:32N 34°36' E 135°22'0 0.0
2014-Sep-28 22:32N 34°36' E 135°22'0 0.0
2014-Sep-28 21:29N 34°36' E 135°22'0 0.0
2014-Sep-28 20:33N 34°36' E 135°22'0 0.0
2014-Sep-28 19:33N 34°36' E 135°22'0 0.0
2014-Sep-28 18:33N 34°36' E 135°22'0 0.0
2014-Sep-28 17:33N 34°36' E 135°22'0 0.0
2014-Sep-28 16:33N 34°36' E 135°22'0 0.0
2014-Sep-28 15:33N 34°36' E 135°22'0 0.1
2014-Sep-28 14:33N 34°36' E 135°22'5 5.0
2014-Sep-28 13:33N 34°33' E 135°17'2311.5
2014-Sep-28 11:32N 34°13' E 135°02'  
Track history (hours):
 
Tides and Currents Weather Stations Pressure Air Temp Water Temp Dewpoint Dewpoint Depression Visibility Wind Speed Wind Dir Waves Ship Positions

Sankoushin

Last reported at 2014-Oct-01 08:19 UTC. Time now 2014-Oct-01 16:23 UTC.
Position N 34°39' E 134°52'.

Length 71 m; draft 4.2 m.

Type: Cargo ship. MMSI: 431000269.

Date/timePositionNaut miles runAvg speedWind from/ knotsBaromVisibWave heightAir tempDewpointWater temp
2014-Oct-01 08:19N 34°39' E 134°52'810.7
2014-Oct-01 07:33N 34°37' E 135°02'1110.8
2014-Oct-01 06:33N 34°26' E 135°04'1111.2
2014-Oct-01 05:33N 34°15' E 135°04'3 2.8
2014-Oct-01 04:33N 34°15' E 135°07'0 0.0
2014-Oct-01 03:33N 34°15' E 135°07'0 0.0
2014-Oct-01 02:33N 34°15' E 135°07'0 0.0
2014-Oct-01 01:33N 34°15' E 135°07'0 0.0
2014-Oct-01 00:33N 34°15' E 135°07'0 0.0
2014-Sep-30 23:33N 34°15' E 135°07'0 0.0
2014-Sep-30 22:33N 34°15' E 135°07'0 0.0
2014-Sep-30 21:33N 34°15' E 135°07'0 0.0
2014-Sep-30 20:33N 34°15' E 135°07'2 1.8
2014-Sep-30 19:33N 34°15' E 135°05'1312.8
2014-Sep-30 18:32N 34°28' E 135°03'11 9.5
2014-Sep-30 17:20N 34°37' E 134°55'1 0.0
2014-Sep-29 16:22N 34°37' E 134°54'1112.8
2014-Sep-29 15:33N 34°36' E 135°06'1313.1
2014-Sep-29 14:34N 34°39' E 135°22'4 4.4
2014-Sep-29 13:33N 34°38' E 135°27'0 0.0
2014-Sep-29 12:33N 34°38' E 135°27'0 0.0
2014-Sep-29 11:33N 34°38' E 135°27'0 0.0
2014-Sep-29 10:32N 34°38' E 135°27'1 0.6
2014-Sep-29 09:33N 34°38' E 135°27'5 4.5
2014-Sep-29 08:32N 34°36' E 135°22'0 0.0
2014-Sep-29 07:26N 34°36' E 135°22'0 0.0
2014-Sep-29 06:32N 34°36' E 135°22'0 0.0
2014-Sep-29 05:27N 34°36' E 135°22'0 0.1
2014-Sep-29 04:33N 34°36' E 135°22'0 0.0
2014-Sep-29 03:33N 34°36' E 135°22'0 0.0
2014-Sep-29 02:29N 34°36' E 135°22'0 0.1
2014-Sep-29 01:31N 34°36' E 135°22'0 0.0
2014-Sep-29 00:28N 34°36' E 135°22'0 0.0
2014-Sep-28 23:32N 34°36' E 135°22'0 0.0
2014-Sep-28 22:32N 34°36' E 135°22'0 0.0
2014-Sep-28 21:29N 34°36' E 135°22'0 0.0
2014-Sep-28 20:33N 34°36' E 135°22'0 0.0
2014-Sep-28 19:33N 34°36' E 135°22'0 0.0
2014-Sep-28 18:33N 34°36' E 135°22'0 0.0
2014-Sep-28 17:33N 34°36' E 135°22'0 0.0
2014-Sep-28 16:33N 34°36' E 135°22'0 0.0
2014-Sep-28 15:33N 34°36' E 135°22'0 0.1
2014-Sep-28 14:33N 34°36' E 135°22'5 5.0
2014-Sep-28 13:33N 34°33' E 135°17'2311.5
2014-Sep-28 11:32N 34°13' E 135°02'  

Dump ship's entire track history